Humidity-temperature Sensor

Selected Measurement Type: Relative Humidity

 
Relative Humidity [%]     6 entries per hour
Showing data from 7/3/2022 (14:00:00 Z) to 7/2/2022 (00:01:00 Z)
Previous Next [ Day | 3-Days | 7-Days ]
First Last
Prev [ Day | 3-Days | 7-Days ] Next
First Last

Start Time:     :
End Time:     :     
Time (in GMT) :00 :50 :40 :30 :20 :10
Previous Next [ Day | 3-Days | 7-Days ]
First Last
Prev [ Day | 3-Days | 7-Days ] Next
First Last


123 => good data
MM => data is determined as missing
-- => data not received/configured
Back to Top Back to Top
7/3/2022 14:00 to 13:10 92.50 91.77 90.45 90.31 90.37 90.61
7/3/2022 13:00 to 12:10 90.61 91.09 90.70 90.74 91.19 91.70
7/3/2022 12:00 to 11:10 91.91 92.16 92.71 92.87 92.75 92.98
7/3/2022 11:00 to 10:10 92.90 93.12 93.55 93.57 94.00 94.31
7/3/2022 10:00 to 9:10 94.29 94.52 94.54 94.42 94.17 94.03
7/3/2022 09:00 to 8:10 93.80 93.31 92.48 91.46 90.98 90.96
7/3/2022 08:00 to 7:10 90.53 89.73 88.93 88.40 88.62 89.01
7/3/2022 07:00 to 6:10 89.46 89.16 89.50 89.36 88.93 88.72
7/3/2022 06:00 to 5:10 88.95 88.77 88.42 87.82 88.11 88.11
7/3/2022 05:00 to 4:10 88.17 88.21 88.29 88.19 88.37 88.33
7/3/2022 04:00 to 3:10 88.35 88.00 88.09 88.19 88.13 88.50
7/3/2022 03:00 to 2:10 88.64 88.74 88.93 88.99 88.85 87.98
7/3/2022 02:00 to 1:10 87.70 87.55 87.66 87.45 87.96 87.72
7/3/2022 01:00 to 0:10 88.11 87.76 87.51 87.45 87.41 87.49
7/3/2022 00:00 to 23:10 87.68 87.72 87.80 88.13 88.27 88.74
7/2/2022 23:00 to 22:10 89.03 88.83 88.97 88.97 89.01 89.03
7/2/2022 22:00 to 21:10 88.54 88.13 87.70 87.74 87.59 87.39
7/2/2022 21:00 to 20:10 87.80 88.23 88.25 88.46 88.48 88.17
7/2/2022 20:00 to 19:10 88.11 88.62 88.83 88.79 88.66 87.47
7/2/2022 19:00 to 18:10 87.24 86.83 86.36 86.18 86.71 86.94
7/2/2022 18:00 to 17:10 87.08 86.94 86.79 87.29 87.24 86.53
7/2/2022 17:00 to 16:10 86.38 86.44 86.90 86.13 85.54 84.55
7/2/2022 16:00 to 15:10 83.81 84.00 84.45 85.09 85.31 86.09
7/2/2022 15:00 to 14:10 86.32 87.00 88.05 89.18 90.08 90.18
7/2/2022 14:00 to 13:10 89.81 88.25 85.81 85.31 86.18 86.57
7/2/2022 13:00 to 12:10 86.57 86.65 86.92 86.59 86.63 86.81
7/2/2022 12:00 to 11:10 86.77 86.87 87.29 87.80 87.78 87.92
7/2/2022 11:00 to 10:10 87.66 88.07 88.70 88.89 89.67 89.63
7/2/2022 10:00 to 9:10 89.75 89.71 89.69 89.26 88.83 88.87
7/2/2022 09:00 to 8:10 88.79 88.11 88.05 87.74 87.31 87.18
7/2/2022 08:00 to 7:10 86.85 86.94 86.92 86.22 85.68 85.87
7/2/2022 07:00 to 6:10 85.56 85.11 85.07 85.31 85.52 85.91
7/2/2022 06:00 to 5:10 86.61 87.51 88.70 90.02 90.55 90.59
7/2/2022 05:00 to 4:10 90.57 90.20 89.85 90.41 90.72 91.11
7/2/2022 04:00 to 3:10 91.17 91.23 91.81 91.74 92.07 92.92
7/2/2022 03:00 to 2:10 93.20 92.75 92.03 90.80 91.40 92.79
7/2/2022 02:00 to 1:10 93.70 95.24 95.46 95.79 96.18 95.98
7/2/2022 01:00 to 0:10 95.42 94.62 94.09 92.94 91.72 88.74